createdAt,value
2018-07-02T00:01:17.043Z,58.90
2018-07-02T00:03:45.432Z,59.30
2018-07-02T00:06:40.037Z,59.20
2018-07-02T00:09:08.465Z,59.40
2018-07-02T00:11:37.130Z,59.20
2018-07-02T00:14:06.741Z,59.20
2018-07-02T00:16:35.147Z,59.10
2018-07-02T00:19:03.504Z,59.80
2018-07-02T00:21:31.912Z,59.40
2018-07-02T00:24:00.276Z,59.60
2018-07-02T00:26:28.686Z,59.60
2018-07-02T00:28:57.048Z,59.60
2018-07-02T00:31:25.441Z,59.60
2018-07-02T00:33:53.830Z,60.00
2018-07-02T00:36:22.249Z,60.30
2018-07-02T00:38:50.618Z,60.30
2018-07-02T00:41:18.987Z,60.60
2018-07-02T00:43:47.439Z,60.60
2018-07-02T00:46:15.816Z,60.80
2018-07-02T00:48:44.182Z,61.00
2018-07-02T00:51:12.596Z,61.70
2018-07-02T00:53:41.102Z,61.60
2018-07-02T00:56:09.490Z,61.20
2018-07-02T00:58:37.876Z,61.60
2018-07-02T01:01:06.308Z,61.80
2018-07-02T01:03:34.731Z,61.50
2018-07-02T01:06:03.131Z,61.30
2018-07-02T01:08:31.531Z,61.50
2018-07-02T01:10:59.916Z,61.80
2018-07-02T01:13:28.307Z,61.80
2018-07-02T01:15:56.839Z,61.50
2018-07-02T01:18:25.235Z,61.50
2018-07-02T01:20:53.703Z,61.40
2018-07-02T01:23:22.068Z,61.70
2018-07-02T01:25:50.458Z,61.60
2018-07-02T01:28:18.878Z,61.70
2018-07-02T01:30:47.374Z,61.60
2018-07-02T01:33:15.998Z,62.20
2018-07-02T01:35:44.418Z,62.40
2018-07-02T01:38:12.801Z,62.70
2018-07-02T01:40:41.150Z,63.00
2018-07-02T01:43:09.570Z,63.00
2018-07-02T01:45:37.973Z,63.70
2018-07-02T01:48:06.383Z,63.60
2018-07-02T01:50:34.751Z,64.20
2018-07-02T01:53:03.127Z,63.60
2018-07-02T01:55:31.520Z,63.70
2018-07-02T01:57:59.911Z,63.70
2018-07-02T02:00:28.317Z,63.60
2018-07-02T02:05:25.344Z,64.60
2018-07-02T02:07:53.781Z,64.40
2018-07-02T02:10:22.760Z,64.10
2018-07-02T02:12:51.142Z,63.60
2018-07-02T02:15:19.571Z,63.80
2018-07-02T02:17:47.933Z,64.40
2018-07-02T02:20:16.321Z,63.80
2018-07-02T02:22:44.818Z,63.60
2018-07-02T02:25:13.193Z,64.70
2018-07-02T02:27:41.570Z,65.30
2018-07-02T02:30:10.036Z,65.50
2018-07-02T02:32:38.390Z,65.90
2018-07-02T02:35:07.029Z,66.60
2018-07-02T02:37:35.427Z,66.60
2018-07-02T02:40:04.569Z,66.80
2018-07-02T02:42:32.929Z,67.00
2018-07-02T02:45:01.330Z,67.30
2018-07-02T02:47:29.687Z,67.60
2018-07-02T02:49:58.083Z,67.60
2018-07-02T02:52:26.475Z,68.00
2018-07-02T02:54:54.873Z,68.40
2018-07-02T02:57:23.241Z,68.40
2018-07-02T02:59:51.647Z,69.00
2018-07-02T03:02:20.017Z,68.50
2018-07-02T03:04:48.404Z,68.40
2018-07-02T03:07:16.772Z,68.70
2018-07-02T03:09:45.203Z,69.00
2018-07-02T03:12:14.007Z,69.10
2018-07-02T03:14:42.432Z,69.20
2018-07-02T03:17:10.832Z,69.50
2018-07-02T03:19:39.208Z,69.80
2018-07-02T03:22:07.742Z,69.30
2018-07-02T03:24:36.136Z,69.30
2018-07-02T03:27:04.482Z,68.60
2018-07-02T03:29:32.876Z,68.20
2018-07-02T03:32:01.256Z,67.70
2018-07-02T03:34:29.612Z,67.80
2018-07-02T03:36:58.052Z,67.70
2018-07-02T03:39:26.436Z,67.60
2018-07-02T03:41:54.867Z,67.60
2018-07-02T03:44:24.043Z,67.90
2018-07-02T03:49:20.648Z,67.30
2018-07-02T03:51:49.027Z,67.40
2018-07-02T03:54:17.376Z,67.30
2018-07-02T03:56:45.824Z,67.00
2018-07-02T03:59:14.214Z,66.50
2018-07-02T04:01:42.629Z,66.40
2018-07-02T04:04:11.026Z,66.40
2018-07-02T04:06:39.444Z,66.00
2018-07-02T04:09:12.180Z,65.90
2018-07-02T04:11:40.622Z,65.90
2018-07-02T04:14:09.265Z,66.10
2018-07-02T04:16:37.823Z,65.80
2018-07-02T04:19:12.875Z,66.10
2018-07-02T04:21:42.993Z,66.60
2018-07-02T04:24:11.483Z,67.30
2018-07-02T04:26:41.679Z,66.90
2018-07-02T04:29:10.499Z,67.30
2018-07-02T04:31:38.883Z,67.40
2018-07-02T04:34:07.273Z,67.20
2018-07-02T04:36:35.641Z,66.90
2018-07-02T04:39:06.569Z,66.90
2018-07-02T04:41:34.973Z,66.70
2018-07-02T04:44:03.420Z,66.90
2018-07-02T04:46:31.807Z,67.10
2018-07-02T04:49:00.266Z,67.10
2018-07-02T04:51:28.643Z,66.60
2018-07-02T04:53:57.040Z,66.00
2018-07-02T04:56:25.457Z,66.00
2018-07-02T04:58:53.835Z,65.70
2018-07-02T05:01:22.246Z,66.20
2018-07-02T05:03:50.601Z,65.30
2018-07-02T05:06:18.953Z,64.90
2018-07-02T05:08:47.366Z,64.40
2018-07-02T05:11:15.743Z,64.30
2018-07-02T05:13:44.116Z,64.10
2018-07-02T05:16:12.570Z,63.90
2018-07-02T05:18:40.985Z,63.40
2018-07-02T05:21:09.334Z,63.50
2018-07-02T05:23:37.700Z,63.10
2018-07-02T05:26:06.170Z,62.50
2018-07-02T05:28:34.696Z,61.90
2018-07-02T05:31:03.116Z,61.80
2018-07-02T05:33:31.479Z,61.60
2018-07-02T05:35:59.864Z,61.40
2018-07-02T05:38:28.299Z,60.70
2018-07-02T05:40:56.680Z,60.70
2018-07-02T05:43:25.067Z,60.80
2018-07-02T05:45:53.449Z,60.30
2018-07-02T05:48:21.855Z,60.10
2018-07-02T05:50:51.188Z,60.10
2018-07-02T05:53:20.067Z,59.70
2018-07-02T05:55:48.454Z,58.80
2018-07-02T05:58:17.765Z,58.80
2018-07-02T06:00:46.334Z,57.50
2018-07-02T06:03:14.732Z,57.50
2018-07-02T06:05:43.118Z,57.10
2018-07-02T06:08:11.498Z,57.30
2018-07-02T06:10:39.905Z,56.30
2018-07-02T06:13:08.329Z,56.30
2018-07-02T06:15:36.712Z,56.20
2018-07-02T06:18:05.092Z,55.40
2018-07-02T06:20:33.532Z,55.30
2018-07-02T06:23:01.973Z,55.40
2018-07-02T06:25:30.357Z,54.80
2018-07-02T06:27:58.723Z,54.30
2018-07-02T06:30:27.141Z,54.20
2018-07-02T06:32:55.508Z,54.00
2018-07-02T06:35:23.898Z,54.00
2018-07-02T06:37:52.324Z,52.80
2018-07-02T06:40:21.566Z,53.00
2018-07-02T06:42:50.018Z,51.50
2018-07-02T06:45:18.426Z,51.50
2018-07-02T06:47:46.827Z,52.50
2018-07-02T06:50:15.286Z,51.70
2018-07-02T06:52:43.661Z,50.50
2018-07-02T06:55:12.065Z,48.80
2018-07-02T06:57:40.420Z,48.60
2018-07-02T07:00:08.782Z,48.50
2018-07-02T07:02:37.181Z,47.70
2018-07-02T07:05:05.669Z,46.50
2018-07-02T07:07:34.018Z,47.40
2018-07-02T07:10:02.384Z,46.50
2018-07-02T07:12:30.718Z,45.90
2018-07-02T07:14:59.124Z,44.90
2018-07-02T07:17:27.557Z,44.80
2018-07-02T07:19:55.935Z,45.00
2018-07-02T07:22:24.312Z,44.50
2018-07-02T07:24:52.657Z,44.20
2018-07-02T07:27:21.012Z,45.10
2018-07-02T07:29:49.376Z,44.10
2018-07-02T07:32:17.716Z,44.00
2018-07-02T07:34:46.233Z,44.00
2018-07-02T07:37:14.567Z,43.00
2018-07-02T07:39:42.972Z,42.50
2018-07-02T07:42:11.327Z,41.80
2018-07-02T07:44:39.729Z,42.00
2018-07-02T07:47:08.126Z,41.50
2018-07-02T07:49:36.457Z,41.60
2018-07-02T07:52:05.006Z,40.80
2018-07-02T07:54:33.458Z,40.50
2018-07-02T07:57:01.836Z,40.20
2018-07-02T07:59:30.224Z,38.90
2018-07-02T08:01:58.665Z,38.60
2018-07-02T08:04:27.010Z,37.90
2018-07-02T08:06:55.405Z,38.40
2018-07-02T08:09:23.772Z,37.30
2018-07-02T08:11:52.137Z,37.00
2018-07-02T08:14:20.524Z,37.70
2018-07-02T08:16:48.938Z,37.10
2018-07-02T08:19:17.379Z,36.60
2018-07-02T08:21:45.771Z,36.60
2018-07-02T08:24:14.126Z,35.50
2018-07-02T08:26:42.533Z,35.10
2018-07-02T08:29:10.917Z,34.50
2018-07-02T08:31:39.281Z,34.20
2018-07-02T08:34:07.729Z,33.80
2018-07-02T08:36:36.207Z,33.80
2018-07-02T08:39:07.856Z,34.30
2018-07-02T08:41:36.223Z,34.10
2018-07-02T08:44:05.325Z,34.40
2018-07-02T08:46:33.751Z,32.70
2018-07-02T08:49:02.185Z,32.70
2018-07-02T08:51:30.870Z,32.80
2018-07-02T08:53:59.277Z,32.70
2018-07-02T08:56:27.718Z,33.00
2018-07-02T08:58:56.064Z,32.80
2018-07-02T09:01:24.500Z,32.80
2018-07-02T09:03:52.885Z,33.20
2018-07-02T09:06:21.402Z,32.60
2018-07-02T09:08:49.756Z,32.30
2018-07-02T09:11:18.149Z,32.00
2018-07-02T09:13:46.511Z,31.60
2018-07-02T09:16:14.930Z,31.60
2018-07-02T09:18:43.309Z,31.60
2018-07-02T09:21:11.660Z,30.90
2018-07-02T09:23:40.035Z,30.60
2018-07-02T09:26:08.431Z,30.90
2018-07-02T09:28:36.822Z,30.80
2018-07-02T09:31:05.226Z,30.30
2018-07-02T09:33:33.604Z,30.50
2018-07-02T09:36:02.024Z,30.00
2018-07-02T09:38:30.380Z,29.90
2018-07-02T09:40:58.756Z,29.90
2018-07-02T09:43:27.157Z,29.50
2018-07-02T09:45:55.637Z,29.10
2018-07-02T09:48:24.019Z,29.20
2018-07-02T09:50:52.444Z,29.20
2018-07-02T09:53:20.828Z,29.40
2018-07-02T09:55:49.199Z,29.10
2018-07-02T09:58:18.089Z,29.00
2018-07-02T10:00:46.369Z,29.30
2018-07-02T10:03:14.736Z,29.80
2018-07-02T10:05:43.134Z,29.90
2018-07-02T10:08:11.992Z,30.70
2018-07-02T10:10:40.393Z,31.40
2018-07-02T10:13:08.800Z,31.30
2018-07-02T10:15:37.221Z,31.10
2018-07-02T10:18:05.669Z,30.80
2018-07-02T10:20:34.066Z,30.20
2018-07-02T10:23:02.874Z,30.70
2018-07-02T10:25:31.454Z,31.50
2018-07-02T10:27:59.809Z,30.60
2018-07-02T10:30:28.204Z,29.60
2018-07-02T10:32:56.573Z,29.30
2018-07-02T10:35:25.073Z,29.40
2018-07-02T10:37:53.459Z,29.30
2018-07-02T10:40:21.886Z,28.90
2018-07-02T10:42:50.269Z,29.60
2018-07-02T10:45:18.678Z,29.20
2018-07-02T10:47:47.288Z,29.50
2018-07-02T10:50:15.738Z,29.40
2018-07-02T10:52:46.301Z,29.10
2018-07-02T10:55:14.697Z,29.00
2018-07-02T10:57:43.077Z,29.20
2018-07-02T11:00:12.532Z,28.00
2018-07-02T11:02:40.942Z,27.80
2018-07-02T11:05:09.311Z,27.50
2018-07-02T11:07:37.677Z,28.00
2018-07-02T11:10:06.249Z,27.70
2018-07-02T11:12:34.607Z,27.10
2018-07-02T11:15:03.064Z,27.40
2018-07-02T11:17:31.420Z,28.50
2018-07-02T11:19:59.785Z,29.00
2018-07-02T11:22:29.253Z,29.40
2018-07-02T11:24:57.623Z,29.20
2018-07-02T11:27:25.951Z,28.20
2018-07-02T11:29:54.319Z,28.20
2018-07-02T11:32:22.833Z,27.70
2018-07-02T11:34:51.291Z,26.70
2018-07-02T11:37:19.682Z,26.60
2018-07-02T11:39:48.080Z,26.70
2018-07-02T11:42:16.455Z,26.80
2018-07-02T11:44:44.845Z,27.00
2018-07-02T11:47:13.408Z,27.20
2018-07-02T11:49:43.733Z,26.60
2018-07-02T11:52:12.205Z,26.40
2018-07-02T11:54:40.634Z,26.30
2018-07-02T11:57:08.965Z,26.60
2018-07-02T11:59:37.388Z,26.10
2018-07-02T12:02:05.845Z,25.00
2018-07-02T12:04:35.140Z,25.90
2018-07-02T12:07:03.631Z,26.50
2018-07-02T12:09:32.008Z,27.30
2018-07-02T12:12:00.388Z,27.20
2018-07-02T12:14:28.874Z,27.40
2018-07-02T12:16:57.314Z,27.50
2018-07-02T12:19:25.639Z,27.10
2018-07-02T12:21:54.048Z,27.40
2018-07-02T12:24:22.431Z,27.50
2018-07-02T12:26:50.837Z,27.40
2018-07-02T12:29:19.202Z,27.50
2018-07-02T12:31:47.585Z,27.40
2018-07-02T12:34:15.947Z,26.80
2018-07-02T12:36:44.657Z,26.50
2018-07-02T12:39:14.259Z,25.40
2018-07-02T12:41:43.281Z,25.80
2018-07-02T12:44:13.280Z,25.80
2018-07-02T12:46:42.137Z,26.80
2018-07-02T12:49:10.794Z,27.20
2018-07-02T12:51:40.358Z,26.90
2018-07-02T12:54:12.040Z,26.60
2018-07-02T12:56:40.459Z,26.70
2018-07-02T12:59:10.185Z,27.00
2018-07-02T13:01:38.581Z,27.30
2018-07-02T13:04:06.984Z,27.40
2018-07-02T13:06:35.364Z,27.20
2018-07-02T13:09:05.979Z,27.20
2018-07-02T13:11:34.348Z,27.10
2018-07-02T13:14:02.765Z,27.30
2018-07-02T13:16:31.567Z,27.10
2018-07-02T13:18:59.924Z,26.50
2018-07-02T13:21:28.361Z,26.20
2018-07-02T13:23:56.700Z,25.40
2018-07-02T13:26:25.095Z,24.70
2018-07-02T13:28:53.477Z,24.20
2018-07-02T13:31:21.857Z,24.30
2018-07-02T13:33:50.261Z,23.80
2018-07-02T13:38:46.815Z,23.40
2018-07-02T13:41:15.165Z,24.30
2018-07-02T13:43:43.538Z,24.90
2018-07-02T13:46:11.997Z,25.10
2018-07-02T13:48:40.437Z,25.40
2018-07-02T13:51:08.833Z,25.50
2018-07-02T13:53:37.208Z,26.80
2018-07-02T13:56:06.224Z,27.10
2018-07-02T13:58:34.818Z,27.50
2018-07-02T14:01:03.273Z,27.20
2018-07-02T14:03:31.612Z,27.50
2018-07-02T14:05:59.958Z,27.30
2018-07-02T14:08:28.393Z,26.80
2018-07-02T14:10:56.796Z,25.80
2018-07-02T14:13:25.189Z,25.40
2018-07-02T14:15:53.845Z,25.00
2018-07-02T14:18:22.286Z,24.30
2018-07-02T14:20:50.626Z,23.10
2018-07-02T14:23:19.044Z,23.00
2018-07-02T14:25:47.394Z,23.20
2018-07-02T14:28:15.778Z,23.60
2018-07-02T14:30:44.641Z,24.00
2018-07-02T14:33:13.036Z,24.00
2018-07-02T14:35:41.377Z,24.20
2018-07-02T14:38:09.799Z,23.80
2018-07-02T14:40:38.241Z,23.50
2018-07-02T14:43:06.914Z,23.30
2018-07-02T14:45:35.424Z,22.10
2018-07-02T14:48:03.630Z,22.20
2018-07-02T14:50:32.063Z,22.30
2018-07-02T14:53:00.396Z,21.70
2018-07-02T14:55:28.746Z,22.40
2018-07-02T14:57:57.103Z,22.80
2018-07-02T15:00:25.464Z,22.90
2018-07-02T15:02:53.830Z,23.00
2018-07-02T15:05:22.281Z,23.10
2018-07-02T15:07:50.874Z,22.20
2018-07-02T15:10:19.351Z,22.00
2018-07-02T15:12:47.776Z,21.20
2018-07-02T15:15:16.189Z,21.80
2018-07-02T15:17:44.524Z,22.20
2018-07-02T15:20:12.967Z,22.60
2018-07-02T15:22:41.366Z,22.40
2018-07-02T15:25:09.811Z,22.30
2018-07-02T15:27:38.182Z,22.70
2018-07-02T15:30:06.690Z,22.60
2018-07-02T15:32:35.096Z,22.10
2018-07-02T15:35:03.760Z,22.20
2018-07-02T15:37:32.139Z,22.20
2018-07-02T15:40:00.608Z,22.50
2018-07-02T15:42:28.948Z,22.90
2018-07-02T15:44:57.335Z,22.90
2018-07-02T15:47:25.662Z,22.80
2018-07-02T15:49:54.034Z,23.00
2018-07-02T15:52:22.371Z,23.00
2018-07-02T15:54:50.745Z,22.90
2018-07-02T15:57:19.106Z,23.00
2018-07-02T15:59:47.466Z,24.00
2018-07-02T16:02:16.254Z,23.40
2018-07-02T16:07:18.626Z,23.20
2018-07-02T16:09:47.006Z,23.20
2018-07-02T16:12:15.676Z,23.20
2018-07-02T16:14:44.044Z,23.00
2018-07-02T16:17:12.486Z,23.60
2018-07-02T16:19:40.861Z,24.00
2018-07-02T16:22:09.224Z,24.00
2018-07-02T16:24:37.594Z,24.10
2018-07-02T16:27:05.977Z,24.20
2018-07-02T16:29:34.391Z,24.30
2018-07-02T16:32:02.721Z,24.30
2018-07-02T16:34:31.066Z,24.30
2018-07-02T16:36:59.435Z,24.20
2018-07-02T16:39:28.512Z,24.40
2018-07-02T16:41:56.870Z,24.30
2018-07-02T16:44:25.342Z,24.40
2018-07-02T16:46:53.831Z,24.30
2018-07-02T16:49:22.213Z,24.70
2018-07-02T16:51:50.639Z,24.40
2018-07-02T16:54:18.993Z,24.40
2018-07-02T16:56:48.290Z,24.40
2018-07-02T16:59:16.676Z,24.30
2018-07-02T17:01:45.123Z,24.10
2018-07-02T17:04:13.802Z,24.30
2018-07-02T17:06:42.192Z,24.40
2018-07-02T17:09:12.109Z,24.10
2018-07-02T17:11:40.906Z,24.90
2018-07-02T17:14:09.991Z,24.90
2018-07-02T17:16:38.972Z,24.90
2018-07-02T17:19:07.464Z,24.60
2018-07-02T17:21:35.836Z,24.80
2018-07-02T17:24:04.332Z,25.00
2018-07-02T17:26:32.752Z,25.20
2018-07-02T17:29:01.377Z,25.40
2018-07-02T17:31:29.764Z,25.60
2018-07-02T17:33:58.145Z,25.40
2018-07-02T17:36:26.572Z,25.40
2018-07-02T17:38:54.982Z,25.40
2018-07-02T17:41:23.345Z,25.40
2018-07-02T17:43:51.812Z,25.10
2018-07-02T17:46:20.185Z,25.50
2018-07-02T17:48:49.208Z,25.70
2018-07-02T17:51:17.549Z,25.90
2018-07-02T17:53:45.943Z,26.00
2018-07-02T17:56:14.387Z,26.00
2018-07-02T17:58:42.881Z,26.00
2018-07-02T18:01:11.295Z,26.20
2018-07-02T18:03:39.722Z,26.50
2018-07-02T18:06:08.081Z,26.80
2018-07-02T18:08:36.458Z,26.70
2018-07-02T18:11:04.868Z,26.70
2018-07-02T18:13:33.257Z,26.80
2018-07-02T18:16:01.633Z,27.00
2018-07-02T18:18:30.051Z,27.00
2018-07-02T18:20:58.432Z,27.10
2018-07-02T18:23:26.864Z,27.70
2018-07-02T18:25:55.330Z,27.20
2018-07-02T18:28:23.700Z,27.30
2018-07-02T18:30:52.110Z,27.30
2018-07-02T18:33:20.516Z,27.60
2018-07-02T18:35:48.920Z,27.70
2018-07-02T18:38:17.294Z,27.90
2018-07-02T18:43:14.930Z,28.50
2018-07-02T18:45:43.325Z,28.80
2018-07-02T18:48:11.779Z,29.20
2018-07-02T18:50:40.239Z,29.60
2018-07-02T18:53:08.689Z,29.80
2018-07-02T18:55:37.105Z,30.10
2018-07-02T18:58:05.848Z,30.50
2018-07-02T19:00:34.248Z,31.10
2018-07-02T19:03:02.646Z,31.60
2018-07-02T19:05:31.068Z,32.00
2018-07-02T19:07:59.457Z,32.30
2018-07-02T19:10:27.982Z,32.90
2018-07-02T19:12:56.449Z,33.20
2018-07-02T19:15:24.937Z,33.40
2018-07-02T19:17:53.334Z,33.90
2018-07-02T19:20:21.744Z,34.20
2018-07-02T19:22:50.103Z,34.60
2018-07-02T19:25:18.473Z,35.00
2018-07-02T19:27:46.845Z,35.20
2018-07-02T19:30:15.274Z,35.60
2018-07-02T19:32:43.685Z,35.60
2018-07-02T19:35:12.095Z,35.80
2018-07-02T19:37:40.489Z,36.00
2018-07-02T19:40:08.926Z,36.30
2018-07-02T19:42:37.282Z,36.50
2018-07-02T19:45:06.081Z,36.80
2018-07-02T19:47:34.442Z,36.70
2018-07-02T19:50:02.822Z,37.00
2018-07-02T19:52:31.216Z,37.20
2018-07-02T19:54:59.601Z,37.30
2018-07-02T19:57:28.024Z,37.60
2018-07-02T19:59:56.446Z,38.30
2018-07-02T20:02:25.472Z,38.00
2018-07-02T20:04:53.943Z,37.90
2018-07-02T20:07:22.342Z,38.10
2018-07-02T20:09:50.723Z,38.20
2018-07-02T20:14:47.515Z,38.60
2018-07-02T20:17:15.958Z,38.70
2018-07-02T20:19:44.306Z,38.90
2018-07-02T20:22:12.666Z,38.90
2018-07-02T20:24:41.076Z,39.10
2018-07-02T20:27:09.529Z,39.30
2018-07-02T20:29:37.865Z,39.50
2018-07-02T20:32:06.224Z,39.70
2018-07-02T20:34:34.586Z,39.90
2018-07-02T20:37:03.014Z,40.10
2018-07-02T20:39:31.384Z,40.50
2018-07-02T20:41:59.764Z,40.80
2018-07-02T20:44:28.220Z,40.90
2018-07-02T20:46:56.579Z,41.00
2018-07-02T20:49:24.942Z,41.40
2018-07-02T20:51:53.705Z,41.50
2018-07-02T20:54:22.097Z,41.70
2018-07-02T20:56:50.501Z,42.00
2018-07-02T20:59:18.891Z,42.20
2018-07-02T21:01:47.337Z,42.50
2018-07-02T21:04:16.656Z,42.70
2018-07-02T21:06:45.098Z,43.10
2018-07-02T21:09:13.475Z,43.30
2018-07-02T21:11:41.898Z,43.40
2018-07-02T21:14:10.265Z,43.60
2018-07-02T21:16:38.652Z,43.90
2018-07-02T21:19:07.033Z,44.20
2018-07-02T21:21:35.410Z,44.20
2018-07-02T21:24:03.813Z,44.20
2018-07-02T21:26:32.214Z,44.20
2018-07-02T21:29:00.631Z,44.50
2018-07-02T21:31:28.985Z,44.70
2018-07-02T21:33:57.339Z,45.20
2018-07-02T21:36:25.755Z,45.40
2018-07-02T21:38:54.308Z,45.30
2018-07-02T21:41:22.857Z,45.30
2018-07-02T21:43:51.237Z,45.50
2018-07-02T21:46:19.569Z,45.70
2018-07-02T21:48:47.932Z,46.20
2018-07-02T21:51:16.922Z,46.40
2018-07-02T21:53:45.307Z,46.70
2018-07-02T21:56:13.636Z,46.80
2018-07-02T21:58:42.038Z,47.00
2018-07-02T22:01:10.421Z,47.00
2018-07-02T22:03:38.800Z,47.10
2018-07-02T22:06:07.255Z,47.10
2018-07-02T22:08:35.626Z,47.10
2018-07-02T22:11:04.023Z,47.10
2018-07-02T22:13:32.448Z,47.10
2018-07-02T22:16:00.953Z,47.10
2018-07-02T22:18:29.332Z,47.10
2018-07-02T22:20:57.712Z,47.20
2018-07-02T22:23:26.433Z,47.30
2018-07-02T22:25:54.790Z,47.40
2018-07-02T22:28:23.138Z,47.60
2018-07-02T22:30:51.540Z,47.80
2018-07-02T22:33:19.905Z,47.80
2018-07-02T22:35:48.292Z,47.90
2018-07-02T22:38:16.668Z,48.10
2018-07-02T22:40:45.027Z,48.00
2018-07-02T22:43:13.454Z,47.80
2018-07-02T22:45:41.820Z,47.90
2018-07-02T22:48:10.197Z,48.30
2018-07-02T22:50:38.636Z,48.70
2018-07-02T22:53:07.165Z,49.10
2018-07-02T22:55:47.136Z,49.40
2018-07-02T22:58:15.491Z,49.70
2018-07-02T23:00:43.876Z,49.70
2018-07-02T23:03:12.225Z,50.00
2018-07-02T23:05:40.586Z,50.10
2018-07-02T23:08:08.944Z,50.20
2018-07-02T23:10:37.401Z,50.40
2018-07-02T23:13:06.796Z,50.60
2018-07-02T23:15:36.009Z,50.70
2018-07-02T23:18:04.392Z,51.00
2018-07-02T23:20:32.875Z,51.60
2018-07-02T23:23:02.584Z,52.10
2018-07-02T23:25:31.266Z,52.70
2018-07-02T23:28:00.742Z,53.70
2018-07-02T23:30:30.167Z,53.40
2018-07-02T23:32:58.834Z,54.80
2018-07-02T23:35:28.119Z,55.50
2018-07-02T23:38:02.811Z,55.70
2018-07-02T23:40:31.199Z,55.80
2018-07-02T23:42:59.641Z,55.90
2018-07-02T23:45:27.996Z,55.90
2018-07-02T23:47:56.331Z,56.00
2018-07-02T23:50:24.704Z,55.20
2018-07-02T23:52:53.054Z,54.60
2018-07-02T23:55:21.424Z,54.40
2018-07-02T23:57:50.554Z,53.90
